Portada
METAR-TAF:

METAR-TAF

Aeroports :

Oruro, Bolívia

latitud: 17-58S, longitud: 067-04W, altitud: 3072 m

Observació

L'informe es va fer fa 17 hores i 23 minuts, a les 16:00 UTC
Vent 7 kt del Nord
Temperatura 14°C
Humitat 36%
Pressió 1036 hPa
Visibilitat 10 km o més
Escasses núvols a una alçada de 2000 ft
Cel ennuvolat a una alçada de 20000 ft

METAR: SLOR 151600Z 36007KT 9999 FEW020 BKN200 14/M01 Q1036

Hora: 05:23 (09:23 UTC)


TAF: manca

Observacions i pronòstics meteorològics de més de 4000 aeroports (METAR i TAF).

Les estacions disponibles són els punts grocs i vermells al mapa.

Posi el ratolí al punt desitjat per veure el nom de l'estació.

Feu clic per veure les observacions i els pronòstics meteorològics.

Per canviar el mapa: feu clic els botons verds amb una creu de color negre per apropar; al botó verd amb un guió per allunyar la imatge; o en les fletxes verdes per a mapes adjacents.


METAR-TAF: